Aérodrome :
LOGIN :

S'inscrire | Disclaimer

   EN    FR    IT 

 










Légende :    VFR   VFR Marginal   IFR   IFR Intensif   IFR Très Intensif
Visi : 
Plafond : 
>= 8 km
>= 3000ft
5 à 8 km
1000 à 3000 ft
1500m à 5 km
500 à 1000 ft
800 à 1500m
200 à 500 ft
< 800m
< 200 ft
Symboles :   Orages  Brouillard  Fortes neiges  Fortes précipitations  Vent > 20 kt
SIGMETs :   Divers  Orages  Givrage  Turbulence  Onde Orograph.  Cendres Volcan.







- Altitude de l'aérodrome : 171 ft
- Code IATA : EGC
- Voir les cartes d'approche


LFBE - Bergerac

DERNIER METAR :
  • 291100Z AUTO 06008KT 030V110 CAVOK 16/00 Q1013 NOSIG

METARs EXPIRÉS :
  • 291030Z AUTO 06009KT 030V090 CAVOK 17/02 Q1013 NOSIG
  • 291000Z AUTO 07008KT 020V110 CAVOK 16/03 Q1014 NOSIG
  • 290930Z AUTO 07008KT CAVOK 14/03 Q1014 NOSIG
  • 290900Z AUTO 08007KT 030V100 CAVOK 14/04 Q1015 NOSIG
  • 290830Z AUTO 06008KT 040V100 CAVOK 12/04 Q1015 NOSIG

TAF TAF LFBE
Valide du 29 à 06h jusqu'au 30 à 06h UTC


290500Z 2906/3006 05008KT CAVOK
BECMG 2906/2909 12010KT
Pas de NOTAMs connus pour ce terrain.



MET'MAP, la Météo Aéronautique d'un coup d'oeil ! - Copyright ORBIFLY Décembre 2007 - Disclaimer

ORBIFLY MET'MAP TEAM :

Programmation & Développement : Alexandra Zaïnal
Conception & Développement : Baudouin d'Aumeries
Co-Programmation & Développement : Marc-Olivier Méhu
Soutien technique & logistique : Manuel Goepfert

Contact : metmap@orbifly.com




SOURCES & CREDITS :

   NOAA